createdAt,value
2018-09-25T00:00:14.270Z,99.99
2018-09-25T00:00:49.594Z,99.99
2018-09-25T00:01:24.809Z,99.99
2018-09-25T00:02:00.168Z,99.99
2018-09-25T00:02:35.706Z,99.99
2018-09-25T00:03:10.827Z,99.99
2018-09-25T00:03:45.933Z,99.99
2018-09-25T00:04:21.164Z,99.99
2018-09-25T00:04:56.524Z,99.99
2018-09-25T00:05:31.709Z,99.99
2018-09-25T00:06:07.448Z,99.99
2018-09-25T00:06:42.878Z,99.99
2018-09-25T00:07:18.186Z,99.99
2018-09-25T00:07:53.538Z,99.99
2018-09-25T00:08:28.833Z,99.99
2018-09-25T00:09:04.366Z,99.99
2018-09-25T00:09:39.559Z,99.99
2018-09-25T00:10:15.137Z,99.99
2018-09-25T00:10:50.844Z,99.99
2018-09-25T00:11:26.272Z,99.99
2018-09-25T00:12:01.516Z,99.99
2018-09-25T00:12:36.854Z,99.99
2018-09-25T00:13:12.183Z,99.99
2018-09-25T00:13:47.385Z,99.99
2018-09-25T00:14:22.625Z,99.99
2018-09-25T00:14:57.732Z,99.99
2018-09-25T00:15:32.940Z,99.99
2018-09-25T00:16:08.552Z,99.99
2018-09-25T00:16:44.042Z,99.99
2018-09-25T00:17:19.379Z,99.99
2018-09-25T00:17:55.139Z,99.99
2018-09-25T00:18:30.469Z,99.99
2018-09-25T00:19:05.607Z,99.99
2018-09-25T00:19:41.219Z,99.99
2018-09-25T00:20:16.742Z,99.99
2018-09-25T00:20:51.837Z,99.99
2018-09-25T00:21:27.273Z,99.99
2018-09-25T00:22:02.888Z,99.99
2018-09-25T00:22:38.221Z,99.99
2018-09-25T00:23:13.579Z,99.99
2018-09-25T00:23:48.673Z,99.99
2018-09-25T00:24:23.893Z,99.99
2018-09-25T00:24:59.726Z,99.99
2018-09-25T00:25:34.924Z,99.99
2018-09-25T00:26:10.182Z,99.99
2018-09-25T00:26:45.182Z,99.99
2018-09-25T00:27:20.601Z,99.99
2018-09-25T00:27:55.843Z,99.99
2018-09-25T00:28:31.288Z,99.99
2018-09-25T00:29:06.729Z,99.99
2018-09-25T00:29:42.120Z,99.99
2018-09-25T00:30:17.748Z,99.99
2018-09-25T00:30:53.147Z,99.99
2018-09-25T00:31:28.470Z,99.99
2018-09-25T00:32:03.805Z,99.99
2018-09-25T00:32:39.109Z,99.99
2018-09-25T00:33:14.621Z,99.99
2018-09-25T00:33:50.025Z,99.99
2018-09-25T00:34:25.651Z,99.99
2018-09-25T00:35:00.777Z,99.99
2018-09-25T00:35:36.175Z,99.99
2018-09-25T00:36:11.580Z,99.99
2018-09-25T00:36:46.687Z,99.99
2018-09-25T00:37:21.829Z,99.99
2018-09-25T00:37:57.165Z,99.99
2018-09-25T00:38:32.674Z,99.99
2018-09-25T00:39:07.939Z,99.99
2018-09-25T00:39:43.449Z,99.99
2018-09-25T00:40:18.884Z,99.99
2018-09-25T00:40:54.023Z,99.99
2018-09-25T00:41:29.238Z,99.99
2018-09-25T00:42:04.887Z,99.99
2018-09-25T00:42:40.678Z,99.99
2018-09-25T00:43:16.020Z,99.99
2018-09-25T00:43:51.344Z,99.99
2018-09-25T00:44:26.838Z,99.99
2018-09-25T00:45:02.176Z,99.99
2018-09-25T00:45:37.403Z,99.99
2018-09-25T00:46:12.729Z,99.99
2018-09-25T00:46:48.212Z,99.99
2018-09-25T00:47:23.432Z,99.99
2018-09-25T00:47:59.082Z,99.99
2018-09-25T00:48:34.879Z,99.99
2018-09-25T00:49:10.436Z,99.99
2018-09-25T00:49:45.961Z,99.99
2018-09-25T00:50:21.269Z,99.99
2018-09-25T00:50:56.688Z,99.99
2018-09-25T00:51:31.793Z,99.99
2018-09-25T00:52:07.215Z,99.99
2018-09-25T00:52:42.735Z,99.99
2018-09-25T00:53:18.267Z,99.99
2018-09-25T00:53:53.784Z,99.99
2018-09-25T00:54:29.241Z,99.99
2018-09-25T00:55:04.661Z,99.99
2018-09-25T00:55:40.176Z,99.99
2018-09-25T00:56:15.418Z,99.99
2018-09-25T00:56:50.650Z,99.99
2018-09-25T00:57:25.856Z,99.99
2018-09-25T00:58:01.202Z,99.99
2018-09-25T00:58:36.609Z,99.99
2018-09-25T00:59:12.140Z,99.99
2018-09-25T00:59:47.590Z,99.99
2018-09-25T01:00:23.034Z,99.99
2018-09-25T01:00:58.765Z,99.99
2018-09-25T01:01:33.887Z,99.99
2018-09-25T01:02:09.040Z,99.99
2018-09-25T01:02:44.458Z,99.99
2018-09-25T01:03:19.708Z,99.99
2018-09-25T01:03:55.166Z,99.99
2018-09-25T01:04:30.477Z,99.99
2018-09-25T01:05:05.960Z,99.99
2018-09-25T01:05:41.458Z,99.99
2018-09-25T01:06:16.984Z,99.99
2018-09-25T01:06:52.190Z,99.99
2018-09-25T01:07:27.504Z,99.99
2018-09-25T01:08:02.744Z,99.99
2018-09-25T01:08:38.786Z,99.99
2018-09-25T01:09:14.322Z,99.99
2018-09-25T01:09:49.512Z,99.99
2018-09-25T01:10:24.864Z,99.99
2018-09-25T01:11:00.186Z,99.99
2018-09-25T01:11:35.922Z,99.99
2018-09-25T01:12:11.245Z,99.99
2018-09-25T01:12:46.777Z,99.99
2018-09-25T01:13:22.304Z,99.99
2018-09-25T01:13:57.590Z,99.99
2018-09-25T01:14:33.011Z,99.99
2018-09-25T01:15:08.456Z,99.99
2018-09-25T01:15:43.893Z,99.99
2018-09-25T01:16:19.424Z,99.99
2018-09-25T01:16:54.921Z,99.99
2018-09-25T01:17:30.257Z,99.99
2018-09-25T01:18:05.582Z,99.99
2018-09-25T01:18:40.981Z,99.99
2018-09-25T01:19:16.287Z,99.99
2018-09-25T01:19:51.802Z,99.99
2018-09-25T01:20:27.444Z,99.99
2018-09-25T01:21:02.583Z,99.99
2018-09-25T01:21:38.225Z,99.99
2018-09-25T01:22:13.662Z,99.99
2018-09-25T01:22:48.983Z,99.99
2018-09-25T01:23:24.410Z,99.99
2018-09-25T01:23:59.775Z,99.99
2018-09-25T01:24:34.992Z,99.99
2018-09-25T01:25:10.061Z,99.99
2018-09-25T01:25:45.398Z,99.99
2018-09-25T01:26:20.709Z,99.99
2018-09-25T01:26:56.035Z,99.99
2018-09-25T01:27:31.452Z,99.99
2018-09-25T01:28:06.771Z,99.99
2018-09-25T01:28:42.288Z,99.99
2018-09-25T01:29:20.933Z,99.99
2018-09-25T01:29:56.460Z,99.99
2018-09-25T01:30:31.907Z,99.99
2018-09-25T01:31:07.367Z,99.99
2018-09-25T01:31:42.883Z,99.99
2018-09-25T01:32:18.085Z,99.99
2018-09-25T01:32:53.790Z,99.99
2018-09-25T01:33:29.215Z,99.99
2018-09-25T01:34:04.445Z,99.99
2018-09-25T01:34:39.833Z,99.99
2018-09-25T01:35:15.366Z,99.99
2018-09-25T01:35:50.698Z,99.99
2018-09-25T01:36:25.966Z,99.99
2018-09-25T01:37:01.389Z,99.99
2018-09-25T01:37:36.723Z,99.99
2018-09-25T01:38:11.864Z,99.99
2018-09-25T01:38:47.471Z,99.99
2018-09-25T01:39:22.981Z,99.99
2018-09-25T01:39:58.445Z,99.99
2018-09-25T01:40:33.756Z,99.99
2018-09-25T01:41:08.905Z,99.99
2018-09-25T01:41:44.926Z,99.99
2018-09-25T01:42:20.349Z,99.99
2018-09-25T01:42:55.638Z,99.99
2018-09-25T01:43:31.355Z,99.99
2018-09-25T01:44:06.803Z,99.99
2018-09-25T01:44:42.434Z,99.99
2018-09-25T01:45:17.777Z,99.99
2018-09-25T01:45:53.218Z,99.99
2018-09-25T01:46:28.561Z,99.99
2018-09-25T01:47:03.917Z,99.99
2018-09-25T01:47:39.865Z,99.99
2018-09-25T01:48:15.215Z,99.99
2018-09-25T01:48:50.396Z,99.99
2018-09-25T01:49:25.839Z,99.99
2018-09-25T01:50:01.175Z,99.99
2018-09-25T01:50:36.743Z,99.99
2018-09-25T01:51:12.112Z,99.99
2018-09-25T01:51:47.701Z,99.99
2018-09-25T01:52:23.289Z,99.99
2018-09-25T01:52:58.801Z,99.99
2018-09-25T01:53:34.254Z,99.99
2018-09-25T01:54:09.608Z,99.99
2018-09-25T01:54:45.357Z,99.99
2018-09-25T01:55:20.802Z,99.99
2018-09-25T01:55:55.886Z,99.99
2018-09-25T01:56:31.427Z,99.99
2018-09-25T01:57:06.857Z,99.99
2018-09-25T01:57:42.394Z,99.99
2018-09-25T01:58:17.845Z,99.99
2018-09-25T01:58:53.234Z,99.99
2018-09-25T01:59:28.693Z,99.99
2018-09-25T02:00:04.333Z,99.99
2018-09-25T02:00:39.736Z,99.99
2018-09-25T02:01:15.072Z,99.99
2018-09-25T02:01:50.395Z,99.99
2018-09-25T02:02:25.652Z,99.99
2018-09-25T02:03:00.884Z,99.99
2018-09-25T02:03:36.336Z,99.99
2018-09-25T02:04:11.661Z,99.99
2018-09-25T02:04:47.148Z,99.99
2018-09-25T02:05:22.273Z,99.99
2018-09-25T02:05:57.473Z,99.99
2018-09-25T02:06:33.003Z,99.99
2018-09-25T02:07:08.027Z,99.99
2018-09-25T02:07:43.582Z,99.99
2018-09-25T02:08:19.526Z,99.99
2018-09-25T02:08:54.934Z,99.99
2018-09-25T02:09:30.475Z,99.99
2018-09-25T02:10:05.910Z,99.99
2018-09-25T02:10:41.124Z,99.99
2018-09-25T02:11:16.466Z,99.99
2018-09-25T02:11:51.707Z,99.99
2018-09-25T02:12:27.240Z,99.99
2018-09-25T02:13:02.436Z,99.99
2018-09-25T02:13:37.487Z,99.99
2018-09-25T02:14:12.812Z,99.99
2018-09-25T02:14:47.912Z,99.99
2018-09-25T02:15:23.381Z,99.99
2018-09-25T02:15:58.484Z,99.99
2018-09-25T02:16:34.008Z,99.99
2018-09-25T02:17:09.328Z,99.99
2018-09-25T02:17:44.646Z,99.99
2018-09-25T02:18:20.401Z,99.99
2018-09-25T02:18:55.826Z,99.99
2018-09-25T02:19:30.962Z,99.99
2018-09-25T02:20:06.391Z,99.99
2018-09-25T02:20:41.986Z,99.99
2018-09-25T02:21:17.377Z,99.99
2018-09-25T02:21:52.474Z,99.99
2018-09-25T02:22:28.134Z,99.99
2018-09-25T02:23:03.679Z,99.99
2018-09-25T02:23:39.121Z,99.99
2018-09-25T02:24:14.447Z,99.99
2018-09-25T02:24:49.598Z,99.99
2018-09-25T02:25:25.161Z,99.99
2018-09-25T02:26:00.380Z,99.99
2018-09-25T02:26:35.806Z,99.99
2018-09-25T02:27:11.136Z,99.99
2018-09-25T02:27:46.450Z,99.99
2018-09-25T02:28:21.806Z,99.99
2018-09-25T02:28:56.997Z,99.99
2018-09-25T02:29:32.719Z,99.99
2018-09-25T02:30:08.038Z,99.99
2018-09-25T02:30:43.441Z,99.99
2018-09-25T02:31:18.754Z,99.99
2018-09-25T02:31:53.858Z,99.99
2018-09-25T02:32:29.600Z,99.99
2018-09-25T02:33:04.945Z,99.99
2018-09-25T02:33:40.343Z,99.99
2018-09-25T02:34:15.581Z,99.99
2018-09-25T02:34:50.992Z,99.99
2018-09-25T02:35:26.552Z,99.99
2018-09-25T02:36:02.230Z,99.99
2018-09-25T02:36:37.437Z,99.99
2018-09-25T02:37:13.052Z,99.99
2018-09-25T02:37:48.703Z,99.99
2018-09-25T02:38:24.332Z,99.99
2018-09-25T02:38:59.631Z,99.99
2018-09-25T02:39:34.894Z,99.99
2018-09-25T02:40:10.612Z,99.99
2018-09-25T02:40:45.932Z,99.99
2018-09-25T02:41:21.262Z,99.99
2018-09-25T02:41:56.876Z,99.99
2018-09-25T02:42:32.205Z,99.99
2018-09-25T02:43:07.655Z,99.99
2018-09-25T02:43:43.064Z,99.99
2018-09-25T02:44:18.424Z,99.99
2018-09-25T02:44:53.867Z,99.99
2018-09-25T02:45:29.401Z,99.99
2018-09-25T02:46:04.924Z,99.99
2018-09-25T02:46:40.217Z,99.99
2018-09-25T02:47:15.575Z,99.99
2018-09-25T02:47:50.919Z,99.99
2018-09-25T02:48:26.343Z,99.99
2018-09-25T02:49:01.563Z,99.99
2018-09-25T02:49:37.223Z,99.99
2018-09-25T02:50:12.961Z,99.99
2018-09-25T02:50:48.182Z,99.99
2018-09-25T02:51:23.600Z,99.99
2018-09-25T02:51:58.842Z,99.99
2018-09-25T02:52:33.899Z,99.99
2018-09-25T02:53:09.444Z,99.99
2018-09-25T02:53:44.566Z,99.99
2018-09-25T02:54:19.910Z,99.99
2018-09-25T02:54:55.339Z,99.99
2018-09-25T02:55:30.479Z,99.99
2018-09-25T02:56:06.020Z,99.99
2018-09-25T02:56:41.328Z,99.99
2018-09-25T02:57:16.904Z,99.99
2018-09-25T02:57:52.089Z,99.99
2018-09-25T02:58:27.720Z,99.99
2018-09-25T02:59:02.914Z,99.99
2018-09-25T02:59:38.152Z,99.99
2018-09-25T03:00:13.790Z,99.99
2018-09-25T03:00:49.212Z,99.99
2018-09-25T03:01:24.676Z,99.99
2018-09-25T03:02:00.181Z,99.99
2018-09-25T03:02:35.512Z,99.99
2018-09-25T03:03:11.043Z,99.99
2018-09-25T03:03:46.360Z,99.99
2018-09-25T03:04:21.488Z,99.99
2018-09-25T03:04:57.000Z,99.99
2018-09-25T03:05:32.772Z,99.99
2018-09-25T03:06:08.416Z,99.99
2018-09-25T03:06:43.626Z,99.99
2018-09-25T03:07:19.239Z,99.99
2018-09-25T03:07:54.538Z,99.99
2018-09-25T03:08:29.898Z,99.99
2018-09-25T03:09:05.340Z,99.99
2018-09-25T03:09:41.136Z,99.99
2018-09-25T03:10:16.377Z,99.99
2018-09-25T03:10:51.488Z,99.99
2018-09-25T03:11:26.502Z,99.99
2018-09-25T03:12:01.933Z,99.99
2018-09-25T03:12:37.255Z,99.99
2018-09-25T03:13:12.875Z,99.99
2018-09-25T03:13:48.377Z,99.99
2018-09-25T03:14:23.730Z,99.99
2018-09-25T03:14:59.151Z,99.99
2018-09-25T03:15:34.176Z,99.99
2018-09-25T03:16:09.648Z,99.99
2018-09-25T03:16:44.860Z,99.99
2018-09-25T03:17:20.354Z,99.99
2018-09-25T03:17:55.663Z,99.99
2018-09-25T03:18:31.217Z,99.99
2018-09-25T03:19:06.656Z,99.99
2018-09-25T03:19:41.720Z,99.99
2018-09-25T03:20:17.240Z,99.99
2018-09-25T03:20:52.671Z,99.99
2018-09-25T03:21:27.916Z,99.99
2018-09-25T03:22:03.539Z,99.99
2018-09-25T03:22:38.765Z,99.99
2018-09-25T03:23:14.151Z,99.99
2018-09-25T03:23:49.364Z,99.99
2018-09-25T03:24:24.536Z,99.99
2018-09-25T03:24:59.853Z,99.99
2018-09-25T03:25:35.069Z,99.99
2018-09-25T03:26:10.265Z,99.99
2018-09-25T03:26:45.447Z,99.99
2018-09-25T03:27:20.852Z,99.99
2018-09-25T03:27:56.501Z,99.99
2018-09-25T03:28:31.720Z,99.99
2018-09-25T03:29:07.126Z,99.99
2018-09-25T03:29:42.476Z,99.99
2018-09-25T03:30:17.875Z,99.99
2018-09-25T03:30:53.504Z,99.99
2018-09-25T03:31:28.743Z,99.99
2018-09-25T03:32:03.975Z,99.99
2018-09-25T03:32:39.328Z,99.99
2018-09-25T03:33:14.428Z,99.99
2018-09-25T03:33:49.655Z,99.99
2018-09-25T03:34:25.374Z,99.99
2018-09-25T03:35:00.678Z,99.99
2018-09-25T03:35:36.300Z,99.99
2018-09-25T03:36:11.416Z,99.99
2018-09-25T03:36:46.777Z,99.99
2018-09-25T03:37:22.228Z,99.99
2018-09-25T03:37:57.579Z,99.99
2018-09-25T03:38:33.137Z,99.99
2018-09-25T03:39:08.935Z,99.99
2018-09-25T03:39:44.494Z,99.99
2018-09-25T03:40:19.916Z,99.99
2018-09-25T03:40:55.827Z,99.99
2018-09-25T03:41:31.067Z,99.97
2018-09-25T03:42:06.279Z,99.99
2018-09-25T03:42:41.246Z,99.99
2018-09-25T03:43:16.529Z,99.99
2018-09-25T03:43:52.270Z,99.99
2018-09-25T03:44:27.508Z,99.99
2018-09-25T03:45:02.638Z,99.99
2018-09-25T03:45:38.145Z,99.97
2018-09-25T03:46:13.351Z,99.99
2018-09-25T03:46:48.889Z,99.99
2018-09-25T03:47:24.424Z,99.99
2018-09-25T03:47:59.709Z,99.99
2018-09-25T03:48:35.051Z,99.99
2018-09-25T03:49:10.461Z,99.99
2018-09-25T03:49:46.085Z,99.99
2018-09-25T03:50:21.521Z,99.99
2018-09-25T03:50:56.961Z,99.99
2018-09-25T03:51:32.490Z,99.99
2018-09-25T03:52:08.288Z,99.99
2018-09-25T03:52:44.564Z,99.99
2018-09-25T03:53:20.104Z,99.99
2018-09-25T03:53:55.865Z,99.99
2018-09-25T03:54:31.177Z,99.88
2018-09-25T03:55:06.598Z,99.99
2018-09-25T03:55:42.133Z,99.99
2018-09-25T03:56:17.637Z,99.99
2018-09-25T03:56:52.749Z,99.99
2018-09-25T03:57:27.865Z,99.99
2018-09-25T03:58:03.070Z,99.99
2018-09-25T03:58:40.410Z,99.99
2018-09-25T03:59:15.734Z,99.99
2018-09-25T03:59:50.860Z,99.99
2018-09-25T04:00:26.108Z,99.99
2018-09-25T04:01:01.629Z,99.99
2018-09-25T04:01:36.535Z,99.99
2018-09-25T04:02:12.166Z,99.99
2018-09-25T04:02:47.473Z,99.99
2018-09-25T04:03:22.903Z,99.99
2018-09-25T04:03:58.453Z,99.99
2018-09-25T04:04:33.782Z,99.99
2018-09-25T04:05:09.323Z,99.97
2018-09-25T04:05:44.563Z,99.99
2018-09-25T04:06:19.833Z,99.99
2018-09-25T04:06:55.119Z,99.99
2018-09-25T04:07:30.647Z,99.99
2018-09-25T04:08:05.850Z,99.99
2018-09-25T04:08:41.099Z,99.99
2018-09-25T04:09:16.299Z,99.99
2018-09-25T04:09:51.827Z,99.99
2018-09-25T04:10:27.061Z,99.97
2018-09-25T04:11:02.393Z,99.99
2018-09-25T04:11:37.720Z,99.99
2018-09-25T04:12:12.713Z,99.99
2018-09-25T04:12:48.063Z,99.99
2018-09-25T04:13:23.314Z,99.99
2018-09-25T04:13:58.469Z,99.99
2018-09-25T04:14:33.807Z,99.99
2018-09-25T04:15:09.122Z,99.99
2018-09-25T04:15:44.452Z,99.99
2018-09-25T04:16:19.865Z,99.99
2018-09-25T04:16:55.092Z,99.99
2018-09-25T04:17:30.400Z,99.99
2018-09-25T04:18:05.811Z,99.99
2018-09-25T04:18:41.143Z,99.99
2018-09-25T04:19:16.356Z,99.99
2018-09-25T04:19:51.296Z,99.99
2018-09-25T04:20:26.542Z,99.99
2018-09-25T04:21:01.839Z,99.99
2018-09-25T04:21:37.287Z,99.99
2018-09-25T04:22:12.899Z,99.88
2018-09-25T04:22:48.238Z,99.88
2018-09-25T04:23:23.377Z,99.99
2018-09-25T04:23:59.041Z,99.99
2018-09-25T04:24:34.468Z,99.99
2018-09-25T04:25:09.875Z,99.78
2018-09-25T04:25:45.607Z,99.99
2018-09-25T04:26:20.933Z,99.99
2018-09-25T04:26:56.462Z,99.99
2018-09-25T04:27:31.616Z,99.99
2018-09-25T04:28:06.837Z,99.99
2018-09-25T04:28:42.180Z,99.99
2018-09-25T04:29:17.513Z,99.99
2018-09-25T04:29:52.770Z,99.99
2018-09-25T04:30:28.097Z,99.99
2018-09-25T04:31:03.624Z,99.99
2018-09-25T04:31:38.953Z,99.99
2018-09-25T04:32:14.372Z,99.99
2018-09-25T04:32:49.701Z,99.99
2018-09-25T04:33:25.142Z,99.99
2018-09-25T04:34:00.674Z,99.99
2018-09-25T04:34:36.016Z,99.97
2018-09-25T04:35:11.218Z,99.99
2018-09-25T04:35:46.563Z,99.99
2018-09-25T04:36:22.156Z,99.99
2018-09-25T04:36:57.567Z,99.99
2018-09-25T04:37:33.072Z,99.99
2018-09-25T04:38:08.506Z,99.99
2018-09-25T04:38:43.809Z,99.97
2018-09-25T04:39:19.533Z,99.99
2018-09-25T04:39:54.978Z,99.99
2018-09-25T04:40:30.414Z,99.99
2018-09-25T04:41:05.725Z,99.99
2018-09-25T04:41:41.145Z,99.99
2018-09-25T04:42:16.569Z,99.99
2018-09-25T04:42:51.902Z,99.99
2018-09-25T04:43:27.421Z,99.99
2018-09-25T04:44:02.778Z,99.99
2018-09-25T04:44:38.351Z,99.99
2018-09-25T04:45:13.869Z,99.99
2018-09-25T04:45:49.272Z,99.99
2018-09-25T04:46:24.603Z,99.99
2018-09-25T04:47:00.100Z,99.99
2018-09-25T04:47:35.462Z,99.99
2018-09-25T04:48:10.571Z,99.99
2018-09-25T04:48:45.814Z,99.99
2018-09-25T04:49:21.014Z,99.99
2018-09-25T04:49:56.295Z,99.99
2018-09-25T04:50:31.692Z,99.99
2018-09-25T04:51:07.038Z,99.99
2018-09-25T04:51:42.450Z,99.99
2018-09-25T04:52:17.768Z,99.99
2018-09-25T04:52:53.098Z,99.99
2018-09-25T04:53:28.510Z,99.99
2018-09-25T04:54:03.933Z,99.99
2018-09-25T04:54:39.139Z,99.99
2018-09-25T04:55:14.473Z,99.99
2018-09-25T04:55:49.909Z,99.99
2018-09-25T04:56:25.302Z,99.99
2018-09-25T04:57:00.686Z,99.99
2018-09-25T04:57:35.733Z,99.99
2018-09-25T04:58:11.380Z,99.99
2018-09-25T04:58:46.965Z,99.99
2018-09-25T04:59:22.613Z,99.99
2018-09-25T04:59:57.922Z,99.99
2018-09-25T05:00:33.077Z,99.99
2018-09-25T05:01:08.287Z,99.99
2018-09-25T05:01:43.515Z,99.99
2018-09-25T05:02:18.721Z,99.99
2018-09-25T05:02:54.353Z,99.99
2018-09-25T05:03:29.684Z,99.99
2018-09-25T05:04:05.124Z,99.99
2018-09-25T05:04:40.334Z,99.99
2018-09-25T05:05:15.659Z,99.99
2018-09-25T05:05:50.893Z,99.99
2018-09-25T05:06:26.246Z,99.99
2018-09-25T05:07:01.409Z,99.99
2018-09-25T05:07:36.923Z,99.99
2018-09-25T05:08:12.242Z,99.99
2018-09-25T05:08:47.983Z,99.99
2018-09-25T05:09:23.224Z,99.99
2018-09-25T05:09:58.590Z,99.99
2018-09-25T05:10:33.886Z,99.99
2018-09-25T05:11:09.152Z,99.99
2018-09-25T05:11:44.748Z,99.99
2018-09-25T05:12:19.898Z,99.99
2018-09-25T05:12:55.307Z,99.99
2018-09-25T05:13:30.755Z,99.99
2018-09-25T05:14:06.060Z,99.99
2018-09-25T05:14:41.525Z,99.99
2018-09-25T05:15:16.768Z,99.99
2018-09-25T05:15:52.214Z,99.99
2018-09-25T05:16:27.545Z,99.99
2018-09-25T05:17:03.003Z,99.99
2018-09-25T05:17:38.416Z,99.99
2018-09-25T05:18:13.769Z,99.99
2018-09-25T05:18:49.455Z,99.99
2018-09-25T05:19:24.790Z,99.99
2018-09-25T05:20:00.083Z,99.99
2018-09-25T05:20:35.220Z,99.99
2018-09-25T05:21:10.963Z,99.99
2018-09-25T05:21:46.655Z,99.99
2018-09-25T05:22:22.003Z,99.99
2018-09-25T05:22:57.434Z,99.99
2018-09-25T05:23:32.638Z,99.99
2018-09-25T05:24:07.985Z,99.99
2018-09-25T05:24:43.363Z,99.99
2018-09-25T05:25:18.769Z,99.99
2018-09-25T05:25:54.156Z,99.99
2018-09-25T05:26:29.743Z,99.99
2018-09-25T05:27:04.980Z,99.99
2018-09-25T05:27:40.231Z,99.99
2018-09-25T05:28:15.434Z,99.99
2018-09-25T05:28:50.996Z,99.99
2018-09-25T05:29:26.542Z,99.99
2018-09-25T05:30:01.981Z,99.99
2018-09-25T05:30:37.390Z,99.99
2018-09-25T05:31:12.716Z,99.99
2018-09-25T05:31:48.245Z,99.99
2018-09-25T05:32:23.805Z,99.99
2018-09-25T05:32:59.207Z,99.99
2018-09-25T05:33:34.459Z,99.99
2018-09-25T05:34:09.602Z,99.99
2018-09-25T05:34:44.813Z,99.99
2018-09-25T05:35:20.195Z,99.99
2018-09-25T05:35:55.938Z,99.99
2018-09-25T05:36:31.236Z,99.99
2018-09-25T05:37:06.903Z,99.99
2018-09-25T05:37:42.516Z,99.99
2018-09-25T05:38:17.754Z,99.99
2018-09-25T05:38:53.241Z,99.99
2018-09-25T05:39:28.887Z,99.99
2018-09-25T05:40:04.145Z,99.73
2018-09-25T05:40:39.514Z,99.73
2018-09-25T05:41:15.040Z,99.83
2018-09-25T05:41:50.503Z,99.73
2018-09-25T05:42:25.922Z,99.99
2018-09-25T05:43:01.442Z,99.99
2018-09-25T05:43:37.094Z,99.99
2018-09-25T05:44:12.567Z,99.99
2018-09-25T05:44:47.896Z,99.99
2018-09-25T05:45:23.427Z,99.99
2018-09-25T05:45:58.444Z,99.99
2018-09-25T05:46:33.603Z,99.99
2018-09-25T05:47:09.149Z,99.99
2018-09-25T05:47:44.272Z,99.99
2018-09-25T05:48:19.752Z,99.99
2018-09-25T05:48:55.119Z,99.99
2018-09-25T05:49:30.018Z,99.99
2018-09-25T05:50:05.551Z,99.99
2018-09-25T05:50:40.858Z,99.64
2018-09-25T05:51:16.204Z,99.83
2018-09-25T05:51:51.756Z,99.99
2018-09-25T05:52:26.911Z,99.99
2018-09-25T05:53:02.297Z,99.99
2018-09-25T05:53:37.927Z,99.99
2018-09-25T05:54:13.234Z,99.99
2018-09-25T05:54:48.577Z,99.73
2018-09-25T05:55:23.864Z,99.99
2018-09-25T05:55:59.061Z,99.83
2018-09-25T05:56:34.318Z,99.73
2018-09-25T05:57:09.718Z,99.99
2018-09-25T05:57:45.305Z,99.99
2018-09-25T05:58:20.749Z,99.99
2018-09-25T05:58:55.981Z,99.99
2018-09-25T05:59:31.360Z,99.99
2018-09-25T06:00:06.494Z,99.99
2018-09-25T06:00:41.792Z,99.99
2018-09-25T06:01:17.245Z,99.99
2018-09-25T06:01:52.535Z,99.99
2018-09-25T06:02:27.986Z,99.83
2018-09-25T06:03:03.717Z,99.99
2018-09-25T06:03:39.081Z,99.99
2018-09-25T06:04:14.298Z,99.64
2018-09-25T06:04:49.529Z,99.99
2018-09-25T06:05:25.152Z,99.99
2018-09-25T06:06:00.611Z,99.83
2018-09-25T06:06:35.771Z,99.99
2018-09-25T06:07:11.105Z,99.83
2018-09-25T06:07:46.700Z,99.99
2018-09-25T06:08:22.077Z,99.99
2018-09-25T06:08:57.680Z,99.99
2018-09-25T06:09:33.207Z,99.99
2018-09-25T06:10:08.517Z,99.78
2018-09-25T06:10:43.841Z,99.83
2018-09-25T06:11:19.126Z,99.97
2018-09-25T06:11:54.756Z,99.97
2018-09-25T06:12:30.271Z,99.99
2018-09-25T06:13:05.702Z,99.99
2018-09-25T06:13:41.124Z,99.99
2018-09-25T06:14:16.875Z,99.99
2018-09-25T06:14:52.428Z,99.99
2018-09-25T06:15:27.795Z,99.99
2018-09-25T06:16:03.220Z,99.99
2018-09-25T06:16:38.865Z,99.97
2018-09-25T06:17:14.375Z,99.99
2018-09-25T06:17:49.718Z,99.99
2018-09-25T06:18:25.025Z,99.88
2018-09-25T06:19:00.395Z,99.99
2018-09-25T06:19:35.601Z,99.50
2018-09-25T06:20:10.946Z,99.78
2018-09-25T06:20:46.671Z,99.59
2018-09-25T06:21:21.987Z,99.50
2018-09-25T06:21:57.296Z,99.97
2018-09-25T06:22:32.532Z,99.50
2018-09-25T06:23:07.787Z,99.40
2018-09-25T06:23:43.087Z,99.21
2018-09-25T06:24:18.590Z,99.78
2018-09-25T06:24:53.840Z,99.88
2018-09-25T06:25:29.271Z,99.40
2018-09-25T06:26:04.730Z,99.74
2018-09-25T06:26:40.134Z,99.64
2018-09-25T06:27:15.604Z,99.55
2018-09-25T06:27:51.032Z,99.64
2018-09-25T06:28:26.549Z,99.45
2018-09-25T06:29:01.775Z,99.45
2018-09-25T06:29:37.298Z,99.26
2018-09-25T06:30:12.880Z,99.55
2018-09-25T06:30:48.220Z,99.45
2018-09-25T06:31:23.509Z,99.26
2018-09-25T06:31:58.743Z,99.07
2018-09-25T06:32:34.038Z,98.88
2018-09-25T06:33:09.373Z,98.97
2018-09-25T06:33:44.591Z,99.45
2018-09-25T06:34:20.161Z,99.16
2018-09-25T06:34:55.388Z,99.31
2018-09-25T06:35:30.797Z,98.88
2018-09-25T06:36:06.029Z,98.17
2018-09-25T06:36:41.447Z,98.36
2018-09-25T06:37:16.658Z,98.93
2018-09-25T06:37:51.969Z,99.02
2018-09-25T06:38:27.074Z,98.83
2018-09-25T06:39:02.526Z,98.74
2018-09-25T06:39:37.963Z,98.74
2018-09-25T06:40:13.292Z,98.93
2018-09-25T06:40:48.625Z,98.55
2018-09-25T06:41:23.966Z,98.46
2018-09-25T06:41:59.191Z,98.17
2018-09-25T06:42:34.724Z,98.50
2018-09-25T06:43:10.140Z,98.13
2018-09-25T06:43:45.760Z,98.22
2018-09-25T06:44:21.162Z,97.93
2018-09-25T06:44:56.414Z,97.84
2018-09-25T06:45:31.700Z,97.93
2018-09-25T06:46:07.444Z,98.03
2018-09-25T06:46:42.537Z,98.22
2018-09-25T06:47:18.045Z,98.08
2018-09-25T06:47:53.180Z,98.46
2018-09-25T06:48:28.367Z,97.79
2018-09-25T06:49:03.900Z,97.70
2018-09-25T06:49:39.207Z,97.70
2018-09-25T06:50:14.778Z,97.51
2018-09-25T06:50:50.146Z,97.36
2018-09-25T06:51:25.859Z,96.89
2018-09-25T06:52:01.393Z,97.27
2018-09-25T06:52:36.810Z,96.51
2018-09-25T06:53:11.957Z,96.80
2018-09-25T06:53:47.564Z,96.12
2018-09-25T06:54:22.685Z,96.03
2018-09-25T06:54:57.865Z,95.89
2018-09-25T06:55:33.176Z,95.70
2018-09-25T06:56:08.870Z,95.70
2018-09-25T06:56:44.380Z,95.12
2018-09-25T06:57:19.679Z,94.93
2018-09-25T06:57:55.030Z,95.22
2018-09-25T06:58:30.333Z,94.65
2018-09-25T06:59:05.659Z,94.74
2018-09-25T06:59:41.170Z,94.27
2018-09-25T07:00:16.628Z,93.70
2018-09-25T07:00:52.413Z,93.88
2018-09-25T07:01:27.684Z,93.93
2018-09-25T07:02:03.004Z,93.74
2018-09-25T07:02:38.337Z,94.12
2018-09-25T07:03:13.638Z,94.03
2018-09-25T07:03:49.332Z,93.55
2018-09-25T07:04:24.536Z,93.93
2018-09-25T07:05:00.082Z,93.93
2018-09-25T07:05:35.342Z,93.93
2018-09-25T07:06:10.784Z,92.79
2018-09-25T07:06:45.934Z,92.12
2018-09-25T07:07:21.022Z,91.55
2018-09-25T07:07:56.352Z,91.83
2018-09-25T07:08:31.570Z,92.88
2018-09-25T07:09:06.910Z,92.60
2018-09-25T07:09:42.593Z,92.79
2018-09-25T07:10:18.091Z,92.98
2018-09-25T07:10:53.717Z,91.78
2018-09-25T07:11:29.354Z,91.93
2018-09-25T07:12:04.676Z,91.88
2018-09-25T07:12:39.998Z,92.17
2018-09-25T07:13:15.212Z,92.17
2018-09-25T07:13:50.560Z,91.98
2018-09-25T07:14:25.878Z,91.50
2018-09-25T07:15:01.307Z,91.41
2018-09-25T07:15:36.415Z,91.21
2018-09-25T07:16:11.686Z,91.21
2018-09-25T07:16:46.908Z,92.07
2018-09-25T07:17:22.454Z,91.50
2018-09-25T07:17:57.890Z,91.88
2018-09-25T07:18:33.193Z,92.31
2018-09-25T07:19:08.400Z,92.02
2018-09-25T07:19:43.858Z,90.97
2018-09-25T07:20:19.162Z,91.16
2018-09-25T07:20:54.805Z,91.45
2018-09-25T07:21:30.248Z,91.83
2018-09-25T07:22:05.701Z,91.45
2018-09-25T07:22:41.035Z,90.88
2018-09-25T07:23:16.832Z,91.55
2018-09-25T07:23:52.150Z,90.11
2018-09-25T07:24:27.624Z,89.64
2018-09-25T07:25:02.928Z,89.45
2018-09-25T07:25:38.260Z,89.87
2018-09-25T07:26:13.858Z,89.30
2018-09-25T07:26:49.003Z,88.97
2018-09-25T07:27:24.320Z,88.44
2018-09-25T07:27:59.858Z,89.68
2018-09-25T07:28:34.979Z,89.97
2018-09-25T07:29:10.306Z,89.39
2018-09-25T07:29:45.737Z,89.01
2018-09-25T07:30:21.379Z,89.20
2018-09-25T07:30:57.182Z,90.35
2018-09-25T07:31:32.452Z,89.30
2018-09-25T07:32:07.873Z,89.44
2018-09-25T07:32:43.349Z,90.11
2018-09-25T07:33:18.646Z,91.16
2018-09-25T07:33:53.910Z,89.15
2018-09-25T07:34:29.319Z,88.01
2018-09-25T07:35:04.866Z,88.48
2018-09-25T07:35:40.285Z,88.77